sensor_id;sensor_type;location;lat;lon;timestamp;P1;durP1;ratioP1;P2;durP2;ratioP2
34657;SDS011;20865;43.312;27.152;2022-11-20T00:01:21;6.95;;;2.60;;
34657;SDS011;20865;43.312;27.152;2022-11-20T00:03:52;12.33;;;2.70;;
34657;SDS011;20865;43.312;27.152;2022-11-20T00:06:21;9.53;;;2.85;;
34657;SDS011;20865;43.312;27.152;2022-11-20T00:08:51;9.65;;;3.00;;
34657;SDS011;20865;43.312;27.152;2022-11-20T00:11:25;8.23;;;2.87;;
34657;SDS011;20865;43.312;27.152;2022-11-20T00:13:54;11.63;;;2.92;;
34657;SDS011;20865;43.312;27.152;2022-11-20T00:16:24;12.95;;;2.47;;
34657;SDS011;20865;43.312;27.152;2022-11-20T00:18:53;10.70;;;2.92;;
34657;SDS011;20865;43.312;27.152;2022-11-20T00:21:23;14.73;;;2.75;;
34657;SDS011;20865;43.312;27.152;2022-11-20T00:23:53;7.25;;;2.83;;
34657;SDS011;20865;43.312;27.152;2022-11-20T00:26:22;6.67;;;2.98;;
34657;SDS011;20865;43.312;27.152;2022-11-20T00:28:53;12.35;;;2.70;;
34657;SDS011;20865;43.312;27.152;2022-11-20T00:31:22;8.90;;;2.40;;
34657;SDS011;20865;43.312;27.152;2022-11-20T00:33:50;7.58;;;2.30;;
34657;SDS011;20865;43.312;27.152;2022-11-20T00:36:19;9.18;;;2.55;;
34657;SDS011;20865;43.312;27.152;2022-11-20T00:38:51;6.08;;;2.60;;
34657;SDS011;20865;43.312;27.152;2022-11-20T00:41:20;6.92;;;2.42;;
34657;SDS011;20865;43.312;27.152;2022-11-20T00:43:49;7.15;;;2.70;;
34657;SDS011;20865;43.312;27.152;2022-11-20T00:46:20;10.45;;;2.47;;
34657;SDS011;20865;43.312;27.152;2022-11-20T00:48:49;8.73;;;2.50;;
34657;SDS011;20865;43.312;27.152;2022-11-20T00:51:18;12.47;;;2.45;;
34657;SDS011;20865;43.312;27.152;2022-11-20T00:53:48;5.00;;;2.25;;
34657;SDS011;20865;43.312;27.152;2022-11-20T00:56:16;8.73;;;3.17;;
34657;SDS011;20865;43.312;27.152;2022-11-20T00:58:46;10.85;;;2.17;;
34657;SDS011;20865;43.312;27.152;2022-11-20T01:01:16;9.48;;;2.17;;
34657;SDS011;20865;43.312;27.152;2022-11-20T01:03:50;8.28;;;2.58;;
34657;SDS011;20865;43.312;27.152;2022-11-20T01:06:23;7.87;;;2.30;;
34657;SDS011;20865;43.312;27.152;2022-11-20T01:08:53;8.25;;;2.58;;
34657;SDS011;20865;43.312;27.152;2022-11-20T01:11:28;12.33;;;2.20;;
34657;SDS011;20865;43.312;27.152;2022-11-20T01:13:58;9.98;;;2.05;;
34657;SDS011;20865;43.312;27.152;2022-11-20T01:16:37;5.70;;;2.60;;
34657;SDS011;20865;43.312;27.152;2022-11-20T01:19:01;9.43;;;1.90;;
34657;SDS011;20865;43.312;27.152;2022-11-20T01:21:31;11.65;;;2.52;;
34657;SDS011;20865;43.312;27.152;2022-11-20T01:24:04;10.45;;;2.30;;
34657;SDS011;20865;43.312;27.152;2022-11-20T01:26:34;9.65;;;2.50;;
34657;SDS011;20865;43.312;27.152;2022-11-20T01:29:03;6.55;;;2.30;;
34657;SDS011;20865;43.312;27.152;2022-11-20T01:31:35;6.78;;;2.22;;
34657;SDS011;20865;43.312;27.152;2022-11-20T01:34:08;13.25;;;2.35;;
34657;SDS011;20865;43.312;27.152;2022-11-20T01:36:37;4.62;;;2.15;;
34657;SDS011;20865;43.312;27.152;2022-11-20T01:39:13;6.47;;;2.90;;
34657;SDS011;20865;43.312;27.152;2022-11-20T01:41:43;7.97;;;2.22;;
34657;SDS011;20865;43.312;27.152;2022-11-20T01:44:50;8.25;;;2.15;;
34657;SDS011;20865;43.312;27.152;2022-11-20T01:47:23;4.55;;;2.05;;
34657;SDS011;20865;43.312;27.152;2022-11-20T01:49:50;9.58;;;2.45;;
34657;SDS011;20865;43.312;27.152;2022-11-20T01:52:20;8.25;;;2.45;;
34657;SDS011;20865;43.312;27.152;2022-11-20T01:54:54;9.83;;;2.22;;
34657;SDS011;20865;43.312;27.152;2022-11-20T01:57:23;9.23;;;2.52;;
34657;SDS011;20865;43.312;27.152;2022-11-20T01:59:54;6.55;;;2.50;;
34657;SDS011;20865;43.312;27.152;2022-11-20T02:02:27;13.40;;;2.72;;
34657;SDS011;20865;43.312;27.152;2022-11-20T02:04:55;5.25;;;2.17;;
34657;SDS011;20865;43.312;27.152;2022-11-20T02:07:25;5.67;;;2.15;;
34657;SDS011;20865;43.312;27.152;2022-11-20T02:09:53;10.25;;;1.90;;
34657;SDS011;20865;43.312;27.152;2022-11-20T02:12:21;7.03;;;1.85;;
34657;SDS011;20865;43.312;27.152;2022-11-20T02:15:07;3.33;;;1.70;;
34657;SDS011;20865;43.312;27.152;2022-11-20T02:17:35;10.03;;;2.72;;
34657;SDS011;20865;43.312;27.152;2022-11-20T02:20:04;2.67;;;1.95;;
34657;SDS011;20865;43.312;27.152;2022-11-20T02:22:35;3.92;;;1.90;;
34657;SDS011;20865;43.312;27.152;2022-11-20T02:25:11;12.93;;;2.40;;
34657;SDS011;20865;43.312;27.152;2022-11-20T02:27:40;8.00;;;2.42;;
34657;SDS011;20865;43.312;27.152;2022-11-20T02:30:08;4.53;;;2.25;;
34657;SDS011;20865;43.312;27.152;2022-11-20T02:32:37;8.28;;;2.60;;
34657;SDS011;20865;43.312;27.152;2022-11-20T02:35:08;8.43;;;2.02;;
34657;SDS011;20865;43.312;27.152;2022-11-20T02:37:39;3.72;;;2.00;;
34657;SDS011;20865;43.312;27.152;2022-11-20T02:40:07;7.78;;;1.90;;
34657;SDS011;20865;43.312;27.152;2022-11-20T02:42:35;10.03;;;2.58;;
34657;SDS011;20865;43.312;27.152;2022-11-20T02:45:04;10.65;;;2.00;;
34657;SDS011;20865;43.312;27.152;2022-11-20T02:47:32;4.58;;;1.87;;
34657;SDS011;20865;43.312;27.152;2022-11-20T02:50:00;13.38;;;2.27;;
34657;SDS011;20865;43.312;27.152;2022-11-20T02:52:28;11.78;;;2.30;;
34657;SDS011;20865;43.312;27.152;2022-11-20T02:54:56;5.28;;;2.50;;
34657;SDS011;20865;43.312;27.152;2022-11-20T02:57:24;3.40;;;2.20;;
34657;SDS011;20865;43.312;27.152;2022-11-20T02:59:51;5.90;;;2.10;;
34657;SDS011;20865;43.312;27.152;2022-11-20T03:02:19;6.75;;;1.55;;
34657;SDS011;20865;43.312;27.152;2022-11-20T03:04:46;7.45;;;2.37;;
34657;SDS011;20865;43.312;27.152;2022-11-20T03:07:14;5.95;;;2.10;;
34657;SDS011;20865;43.312;27.152;2022-11-20T03:09:42;4.40;;;2.00;;
34657;SDS011;20865;43.312;27.152;2022-11-20T03:12:09;4.97;;;1.75;;
34657;SDS011;20865;43.312;27.152;2022-11-20T03:14:37;5.85;;;1.92;;
34657;SDS011;20865;43.312;27.152;2022-11-20T03:17:04;6.20;;;2.08;;
34657;SDS011;20865;43.312;27.152;2022-11-20T03:19:32;10.13;;;2.20;;
34657;SDS011;20865;43.312;27.152;2022-11-20T03:22:00;4.10;;;1.75;;
34657;SDS011;20865;43.312;27.152;2022-11-20T03:24:27;4.03;;;1.22;;
34657;SDS011;20865;43.312;27.152;2022-11-20T03:26:55;8.25;;;1.70;;
34657;SDS011;20865;43.312;27.152;2022-11-20T03:29:22;10.53;;;2.12;;
34657;SDS011;20865;43.312;27.152;2022-11-20T03:31:50;10.55;;;1.72;;
34657;SDS011;20865;43.312;27.152;2022-11-20T03:34:17;3.45;;;1.72;;
34657;SDS011;20865;43.312;27.152;2022-11-20T03:36:45;5.95;;;1.70;;
34657;SDS011;20865;43.312;27.152;2022-11-20T03:39:13;6.92;;;1.98;;
34657;SDS011;20865;43.312;27.152;2022-11-20T03:41:41;5.80;;;1.70;;
34657;SDS011;20865;43.312;27.152;2022-11-20T03:44:09;4.60;;;2.02;;
34657;SDS011;20865;43.312;27.152;2022-11-20T03:46:38;4.55;;;2.25;;
34657;SDS011;20865;43.312;27.152;2022-11-20T03:49:05;12.63;;;2.30;;
34657;SDS011;20865;43.312;27.152;2022-11-20T03:51:34;7.42;;;1.45;;
34657;SDS011;20865;43.312;27.152;2022-11-20T03:54:03;16.07;;;3.15;;
34657;SDS011;20865;43.312;27.152;2022-11-20T03:56:33;9.30;;;2.70;;
34657;SDS011;20865;43.312;27.152;2022-11-20T03:59:03;8.93;;;1.80;;
34657;SDS011;20865;43.312;27.152;2022-11-20T04:01:31;8.20;;;2.33;;
34657;SDS011;20865;43.312;27.152;2022-11-20T04:04:01;12.45;;;1.87;;
34657;SDS011;20865;43.312;27.152;2022-11-20T04:06:30;7.90;;;1.67;;
34657;SDS011;20865;43.312;27.152;2022-11-20T04:09:02;6.65;;;1.60;;
34657;SDS011;20865;43.312;27.152;2022-11-20T04:11:31;6.40;;;2.42;;
34657;SDS011;20865;43.312;27.152;2022-11-20T04:14:02;9.18;;;2.15;;
34657;SDS011;20865;43.312;27.152;2022-11-20T04:16:32;9.80;;;1.52;;
34657;SDS011;20865;43.312;27.152;2022-11-20T04:19:02;7.75;;;1.80;;
34657;SDS011;20865;43.312;27.152;2022-11-20T04:21:31;9.53;;;2.15;;
34657;SDS011;20865;43.312;27.152;2022-11-20T04:23:59;20.60;;;2.90;;
34657;SDS011;20865;43.312;27.152;2022-11-20T04:26:27;8.25;;;2.35;;
34657;SDS011;20865;43.312;27.152;2022-11-20T04:28:56;5.58;;;2.30;;
34657;SDS011;20865;43.312;27.152;2022-11-20T04:31:25;7.42;;;2.27;;
34657;SDS011;20865;43.312;27.152;2022-11-20T04:33:54;9.70;;;2.65;;
34657;SDS011;20865;43.312;27.152;2022-11-20T04:36:25;4.62;;;2.58;;
34657;SDS011;20865;43.312;27.152;2022-11-20T04:38:54;6.25;;;2.02;;
34657;SDS011;20865;43.312;27.152;2022-11-20T04:41:24;20.32;;;2.58;;
34657;SDS011;20865;43.312;27.152;2022-11-20T04:43:53;9.25;;;2.25;;
34657;SDS011;20865;43.312;27.152;2022-11-20T04:46:24;6.95;;;1.92;;
34657;SDS011;20865;43.312;27.152;2022-11-20T04:48:53;2.87;;;1.57;;
34657;SDS011;20865;43.312;27.152;2022-11-20T04:51:21;7.12;;;2.33;;
34657;SDS011;20865;43.312;27.152;2022-11-20T04:53:49;5.37;;;1.32;;
34657;SDS011;20865;43.312;27.152;2022-11-20T04:56:16;9.05;;;2.22;;
34657;SDS011;20865;43.312;27.152;2022-11-20T04:58:44;6.12;;;1.98;;
34657;SDS011;20865;43.312;27.152;2022-11-20T05:01:12;5.20;;;1.72;;
34657;SDS011;20865;43.312;27.152;2022-11-20T05:03:43;7.37;;;1.80;;
34657;SDS011;20865;43.312;27.152;2022-11-20T05:06:12;8.90;;;1.90;;
34657;SDS011;20865;43.312;27.152;2022-11-20T05:08:41;6.78;;;1.87;;
34657;SDS011;20865;43.312;27.152;2022-11-20T05:11:10;2.10;;;1.07;;
34657;SDS011;20865;43.312;27.152;2022-11-20T05:13:39;8.03;;;1.82;;
34657;SDS011;20865;43.312;27.152;2022-11-20T05:16:15;5.25;;;1.22;;
34657;SDS011;20865;43.312;27.152;2022-11-20T05:18:44;5.62;;;1.80;;
34657;SDS011;20865;43.312;27.152;2022-11-20T05:21:13;10.18;;;1.98;;
34657;SDS011;20865;43.312;27.152;2022-11-20T05:23:41;7.65;;;1.75;;
34657;SDS011;20865;43.312;27.152;2022-11-20T05:26:17;7.20;;;2.08;;
34657;SDS011;20865;43.312;27.152;2022-11-20T05:28:47;11.45;;;1.60;;
34657;SDS011;20865;43.312;27.152;2022-11-20T05:31:22;4.35;;;2.08;;
34657;SDS011;20865;43.312;27.152;2022-11-20T05:33:51;7.45;;;1.60;;
34657;SDS011;20865;43.312;27.152;2022-11-20T05:36:18;16.42;;;2.37;;
34657;SDS011;20865;43.312;27.152;2022-11-20T05:38:46;7.33;;;1.85;;
34657;SDS011;20865;43.312;27.152;2022-11-20T05:41:14;13.90;;;1.85;;
34657;SDS011;20865;43.312;27.152;2022-11-20T05:43:43;6.87;;;1.45;;
34657;SDS011;20865;43.312;27.152;2022-11-20T05:46:12;12.15;;;1.92;;
34657;SDS011;20865;43.312;27.152;2022-11-20T05:48:41;5.15;;;1.47;;
34657;SDS011;20865;43.312;27.152;2022-11-20T05:51:10;7.12;;;1.82;;
34657;SDS011;20865;43.312;27.152;2022-11-20T05:53:40;5.12;;;1.65;;
34657;SDS011;20865;43.312;27.152;2022-11-20T05:56:12;9.58;;;1.90;;
34657;SDS011;20865;43.312;27.152;2022-11-20T05:58:41;9.00;;;2.50;;
34657;SDS011;20865;43.312;27.152;2022-11-20T06:01:15;6.92;;;1.77;;
34657;SDS011;20865;43.312;27.152;2022-11-20T06:03:46;3.60;;;1.52;;
34657;SDS011;20865;43.312;27.152;2022-11-20T06:06:16;9.73;;;1.70;;
34657;SDS011;20865;43.312;27.152;2022-11-20T06:08:45;8.85;;;3.02;;
34657;SDS011;20865;43.312;27.152;2022-11-20T06:11:13;7.50;;;1.87;;
34657;SDS011;20865;43.312;27.152;2022-11-20T06:13:41;4.87;;;2.15;;
34657;SDS011;20865;43.312;27.152;2022-11-20T06:16:10;8.55;;;2.08;;
34657;SDS011;20865;43.312;27.152;2022-11-20T06:18:39;8.55;;;1.85;;
34657;SDS011;20865;43.312;27.152;2022-11-20T06:21:08;8.90;;;1.90;;
34657;SDS011;20865;43.312;27.152;2022-11-20T06:23:37;9.45;;;1.72;;
34657;SDS011;20865;43.312;27.152;2022-11-20T06:26:06;10.23;;;2.00;;
34657;SDS011;20865;43.312;27.152;2022-11-20T06:28:36;7.58;;;1.55;;
34657;SDS011;20865;43.312;27.152;2022-11-20T06:31:03;8.58;;;1.67;;
34657;SDS011;20865;43.312;27.152;2022-11-20T06:33:32;4.20;;;1.65;;
34657;SDS011;20865;43.312;27.152;2022-11-20T06:36:00;4.90;;;2.05;;
34657;SDS011;20865;43.312;27.152;2022-11-20T06:38:28;8.15;;;1.62;;
34657;SDS011;20865;43.312;27.152;2022-11-20T06:40:56;8.43;;;2.10;;
34657;SDS011;20865;43.312;27.152;2022-11-20T06:43:24;9.83;;;1.82;;
34657;SDS011;20865;43.312;27.152;2022-11-20T06:45:52;13.30;;;1.92;;
34657;SDS011;20865;43.312;27.152;2022-11-20T06:48:20;6.58;;;2.02;;
34657;SDS011;20865;43.312;27.152;2022-11-20T06:50:49;9.60;;;2.20;;
34657;SDS011;20865;43.312;27.152;2022-11-20T06:53:17;11.45;;;1.75;;
34657;SDS011;20865;43.312;27.152;2022-11-20T06:55:46;3.30;;;1.65;;
34657;SDS011;20865;43.312;27.152;2022-11-20T06:58:14;8.13;;;2.10;;
34657;SDS011;20865;43.312;27.152;2022-11-20T07:00:43;6.10;;;1.70;;
34657;SDS011;20865;43.312;27.152;2022-11-20T07:03:11;10.38;;;2.40;;
34657;SDS011;20865;43.312;27.152;2022-11-20T07:05:39;8.25;;;1.85;;
34657;SDS011;20865;43.312;27.152;2022-11-20T07:08:06;9.18;;;1.60;;
34657;SDS011;20865;43.312;27.152;2022-11-20T07:10:34;4.85;;;1.60;;
34657;SDS011;20865;43.312;27.152;2022-11-20T07:13:02;6.05;;;1.65;;
34657;SDS011;20865;43.312;27.152;2022-11-20T07:15:30;6.85;;;1.60;;
34657;SDS011;20865;43.312;27.152;2022-11-20T07:18:00;7.70;;;1.90;;
34657;SDS011;20865;43.312;27.152;2022-11-20T07:20:28;6.95;;;2.17;;
34657;SDS011;20865;43.312;27.152;2022-11-20T07:22:57;7.40;;;2.10;;
34657;SDS011;20865;43.312;27.152;2022-11-20T07:25:25;11.50;;;1.25;;
34657;SDS011;20865;43.312;27.152;2022-11-20T07:27:57;15.72;;;1.72;;
34657;SDS011;20865;43.312;27.152;2022-11-20T07:30:25;8.73;;;2.12;;
34657;SDS011;20865;43.312;27.152;2022-11-20T07:32:55;9.38;;;1.60;;
34657;SDS011;20865;43.312;27.152;2022-11-20T07:35:23;6.30;;;2.22;;
34657;SDS011;20865;43.312;27.152;2022-11-20T07:37:51;8.68;;;1.75;;
34657;SDS011;20865;43.312;27.152;2022-11-20T07:40:19;8.68;;;2.20;;
34657;SDS011;20865;43.312;27.152;2022-11-20T07:42:50;3.65;;;1.42;;
34657;SDS011;20865;43.312;27.152;2022-11-20T07:45:19;3.12;;;1.47;;
34657;SDS011;20865;43.312;27.152;2022-11-20T07:47:48;6.50;;;1.50;;
34657;SDS011;20865;43.312;27.152;2022-11-20T07:50:17;12.03;;;2.47;;
34657;SDS011;20865;43.312;27.152;2022-11-20T07:52:45;3.87;;;1.42;;
34657;SDS011;20865;43.312;27.152;2022-11-20T07:55:13;7.78;;;2.05;;
34657;SDS011;20865;43.312;27.152;2022-11-20T07:57:41;6.17;;;1.95;;
34657;SDS011;20865;43.312;27.152;2022-11-20T08:00:09;10.25;;;2.58;;
34657;SDS011;20865;43.312;27.152;2022-11-20T08:02:38;11.38;;;2.02;;
34657;SDS011;20865;43.312;27.152;2022-11-20T08:05:07;7.75;;;2.17;;
34657;SDS011;20865;43.312;27.152;2022-11-20T08:07:39;6.62;;;1.75;;
34657;SDS011;20865;43.312;27.152;2022-11-20T08:10:08;9.35;;;2.00;;
34657;SDS011;20865;43.312;27.152;2022-11-20T08:12:45;4.60;;;1.47;;
34657;SDS011;20865;43.312;27.152;2022-11-20T08:15:31;8.48;;;1.92;;
34657;SDS011;20865;43.312;27.152;2022-11-20T08:18:05;7.78;;;1.70;;
34657;SDS011;20865;43.312;27.152;2022-11-20T08:20:29;7.58;;;1.92;;
34657;SDS011;20865;43.312;27.152;2022-11-20T08:22:58;8.68;;;2.15;;
34657;SDS011;20865;43.312;27.152;2022-11-20T08:25:31;9.15;;;1.60;;
34657;SDS011;20865;43.312;27.152;2022-11-20T08:28:07;9.10;;;2.12;;
34657;SDS011;20865;43.312;27.152;2022-11-20T08:30:36;5.58;;;1.50;;
34657;SDS011;20865;43.312;27.152;2022-11-20T08:33:05;8.10;;;2.10;;
34657;SDS011;20865;43.312;27.152;2022-11-20T08:35:35;10.58;;;1.62;;
34657;SDS011;20865;43.312;27.152;2022-11-20T08:38:04;7.92;;;2.05;;
34657;SDS011;20865;43.312;27.152;2022-11-20T08:40:33;8.48;;;1.50;;
34657;SDS011;20865;43.312;27.152;2022-11-20T08:43:00;7.05;;;1.70;;
34657;SDS011;20865;43.312;27.152;2022-11-20T08:45:28;3.20;;;1.62;;
34657;SDS011;20865;43.312;27.152;2022-11-20T08:47:59;15.45;;;1.65;;
34657;SDS011;20865;43.312;27.152;2022-11-20T08:50:30;5.62;;;2.83;;
34657;SDS011;20865;43.312;27.152;2022-11-20T08:53:02;5.17;;;1.95;;
34657;SDS011;20865;43.312;27.152;2022-11-20T08:55:30;9.58;;;2.75;;
34657;SDS011;20865;43.312;27.152;2022-11-20T08:57:58;11.90;;;3.65;;
34657;SDS011;20865;43.312;27.152;2022-11-20T09:00:30;24.20;;;6.65;;
34657;SDS011;20865;43.312;27.152;2022-11-20T09:02:59;10.20;;;4.50;;
34657;SDS011;20865;43.312;27.152;2022-11-20T09:05:27;7.90;;;3.75;;
34657;SDS011;20865;43.312;27.152;2022-11-20T09:07:58;12.98;;;4.53;;
34657;SDS011;20865;43.312;27.152;2022-11-20T09:10:26;16.27;;;2.92;;
34657;SDS011;20865;43.312;27.152;2022-11-20T09:12:54;6.37;;;2.00;;
34657;SDS011;20865;43.312;27.152;2022-11-20T09:15:22;12.68;;;3.65;;
34657;SDS011;20865;43.312;27.152;2022-11-20T09:17:54;15.23;;;2.65;;
34657;SDS011;20865;43.312;27.152;2022-11-20T09:20:22;8.10;;;3.95;;
34657;SDS011;20865;43.312;27.152;2022-11-20T09:22:50;12.82;;;3.22;;
34657;SDS011;20865;43.312;27.152;2022-11-20T09:25:18;5.33;;;2.72;;
34657;SDS011;20865;43.312;27.152;2022-11-20T09:27:45;10.28;;;3.10;;
34657;SDS011;20865;43.312;27.152;2022-11-20T09:30:14;16.05;;;2.80;;
34657;SDS011;20865;43.312;27.152;2022-11-20T09:32:42;10.03;;;2.75;;
34657;SDS011;20865;43.312;27.152;2022-11-20T09:35:10;8.10;;;1.75;;
34657;SDS011;20865;43.312;27.152;2022-11-20T09:37:38;7.15;;;2.10;;
34657;SDS011;20865;43.312;27.152;2022-11-20T09:40:06;13.90;;;2.55;;
34657;SDS011;20865;43.312;27.152;2022-11-20T09:45:18;9.20;;;2.22;;
34657;SDS011;20865;43.312;27.152;2022-11-20T09:56:20;14.65;;;2.80;;
34657;SDS011;20865;43.312;27.152;2022-11-20T09:58:50;10.75;;;2.08;;
34657;SDS011;20865;43.312;27.152;2022-11-20T10:01:20;9.43;;;2.83;;
34657;SDS011;20865;43.312;27.152;2022-11-20T10:06:41;14.47;;;2.58;;
34657;SDS011;20865;43.312;27.152;2022-11-20T10:09:21;8.85;;;1.90;;
34657;SDS011;20865;43.312;27.152;2022-11-20T10:23:13;11.38;;;1.90;;
34657;SDS011;20865;43.312;27.152;2022-11-20T10:28:13;10.10;;;2.77;;
34657;SDS011;20865;43.312;27.152;2022-11-20T10:30:41;10.68;;;3.02;;
34657;SDS011;20865;43.312;27.152;2022-11-20T10:33:15;14.58;;;2.08;;
34657;SDS011;20865;43.312;27.152;2022-11-20T10:35:47;8.40;;;2.22;;
34657;SDS011;20865;43.312;27.152;2022-11-20T10:38:21;12.75;;;2.47;;
34657;SDS011;20865;43.312;27.152;2022-11-20T10:41:01;11.08;;;2.05;;
34657;SDS011;20865;43.312;27.152;2022-11-20T10:43:49;9.00;;;1.92;;
34657;SDS011;20865;43.312;27.152;2022-11-20T10:46:22;11.12;;;2.95;;
34657;SDS011;20865;43.312;27.152;2022-11-20T10:48:52;10.90;;;2.85;;
34657;SDS011;20865;43.312;27.152;2022-11-20T10:51:40;9.70;;;1.87;;
34657;SDS011;20865;43.312;27.152;2022-11-20T10:54:17;14.63;;;2.00;;
34657;SDS011;20865;43.312;27.152;2022-11-20T10:56:48;11.15;;;2.17;;
34657;SDS011;20865;43.312;27.152;2022-11-20T11:02:21;10.20;;;2.20;;
34657;SDS011;20865;43.312;27.152;2022-11-20T11:04:51;10.30;;;1.70;;
34657;SDS011;20865;43.312;27.152;2022-11-20T11:07:27;8.15;;;1.85;;
34657;SDS011;20865;43.312;27.152;2022-11-20T11:09:56;14.13;;;1.77;;
34657;SDS011;20865;43.312;27.152;2022-11-20T11:12:25;12.07;;;2.17;;
34657;SDS011;20865;43.312;27.152;2022-11-20T11:14:56;9.28;;;1.85;;
34657;SDS011;20865;43.312;27.152;2022-11-20T11:17:25;6.10;;;1.65;;
34657;SDS011;20865;43.312;27.152;2022-11-20T11:19:58;8.33;;;2.27;;
34657;SDS011;20865;43.312;27.152;2022-11-20T11:22:28;6.85;;;1.95;;
34657;SDS011;20865;43.312;27.152;2022-11-20T11:24:57;6.80;;;1.72;;
34657;SDS011;20865;43.312;27.152;2022-11-20T11:27:25;6.95;;;1.82;;
34657;SDS011;20865;43.312;27.152;2022-11-20T11:30:03;10.32;;;2.15;;
34657;SDS011;20865;43.312;27.152;2022-11-20T11:32:41;11.12;;;1.70;;
34657;SDS011;20865;43.312;27.152;2022-11-20T11:35:20;8.30;;;2.10;;
34657;SDS011;20865;43.312;27.152;2022-11-20T11:37:50;8.93;;;2.70;;
34657;SDS011;20865;43.312;27.152;2022-11-20T11:40:20;12.95;;;2.58;;
34657;SDS011;20865;43.312;27.152;2022-11-20T11:42:59;9.35;;;2.42;;
34657;SDS011;20865;43.312;27.152;2022-11-20T11:45:25;11.75;;;1.70;;
34657;SDS011;20865;43.312;27.152;2022-11-20T11:47:53;9.85;;;2.17;;
34657;SDS011;20865;43.312;27.152;2022-11-20T11:50:25;17.50;;;2.42;;
34657;SDS011;20865;43.312;27.152;2022-11-20T11:52:58;5.17;;;2.37;;
34657;SDS011;20865;43.312;27.152;2022-11-20T11:55:49;9.20;;;2.00;;
34657;SDS011;20865;43.312;27.152;2022-11-20T12:01:21;44.35;;;24.25;;
34657;SDS011;20865;43.312;27.152;2022-11-20T12:06:49;29.05;;;14.30;;
34657;SDS011;20865;43.312;27.152;2022-11-20T12:09:20;26.23;;;12.50;;
34657;SDS011;20865;43.312;27.152;2022-11-20T12:11:53;16.37;;;10.13;;
34657;SDS011;20865;43.312;27.152;2022-11-20T12:16:55;16.10;;;7.50;;
34657;SDS011;20865;43.312;27.152;2022-11-20T12:19:23;13.38;;;5.20;;
34657;SDS011;20865;43.312;27.152;2022-11-20T12:27:04;10.70;;;5.42;;
34657;SDS011;20865;43.312;27.152;2022-11-20T12:35:21;13.05;;;5.75;;
34657;SDS011;20865;43.312;27.152;2022-11-20T12:37:55;11.22;;;5.20;;
34657;SDS011;20865;43.312;27.152;2022-11-20T12:43:18;53.33;;;22.20;;
34657;SDS011;20865;43.312;27.152;2022-11-20T12:49:27;17.02;;;7.60;;
34657;SDS011;20865;43.312;27.152;2022-11-20T12:52:04;15.72;;;5.70;;
34657;SDS011;20865;43.312;27.152;2022-11-20T12:57:27;11.18;;;5.90;;
34657;SDS011;20865;43.312;27.152;2022-11-20T13:05:37;9.38;;;5.37;;
34657;SDS011;20865;43.312;27.152;2022-11-20T13:08:07;25.32;;;6.12;;
34657;SDS011;20865;43.312;27.152;2022-11-20T13:10:38;13.45;;;6.40;;
34657;SDS011;20865;43.312;27.152;2022-11-20T13:16:08;14.17;;;7.17;;
34657;SDS011;20865;43.312;27.152;2022-11-20T13:18:42;13.30;;;6.15;;
34657;SDS011;20865;43.312;27.152;2022-11-20T13:21:18;12.58;;;6.12;;
34657;SDS011;20865;43.312;27.152;2022-11-20T13:23:51;11.40;;;6.03;;
34657;SDS011;20865;43.312;27.152;2022-11-20T13:26:19;10.28;;;6.60;;
34657;SDS011;20865;43.312;27.152;2022-11-20T13:29:03;10.80;;;6.17;;
34657;SDS011;20865;43.312;27.152;2022-11-20T13:31:45;11.65;;;5.70;;
34657;SDS011;20865;43.312;27.152;2022-11-20T13:34:27;10.32;;;5.83;;
34657;SDS011;20865;43.312;27.152;2022-11-20T13:36:56;16.62;;;6.47;;
34657;SDS011;20865;43.312;27.152;2022-11-20T13:39:33;15.18;;;6.83;;
34657;SDS011;20865;43.312;27.152;2022-11-20T13:42:02;13.30;;;5.58;;
34657;SDS011;20865;43.312;27.152;2022-11-20T13:44:48;10.15;;;5.42;;
34657;SDS011;20865;43.312;27.152;2022-11-20T13:47:24;10.85;;;5.25;;
34657;SDS011;20865;43.312;27.152;2022-11-20T13:49:53;12.78;;;4.92;;
34657;SDS011;20865;43.312;27.152;2022-11-20T13:52:35;9.45;;;5.33;;
34657;SDS011;20865;43.312;27.152;2022-11-20T14:00:32;11.57;;;4.67;;
34657;SDS011;20865;43.312;27.152;2022-11-20T14:03:07;12.43;;;5.35;;
34657;SDS011;20865;43.312;27.152;2022-11-20T14:05:34;15.48;;;4.95;;
34657;SDS011;20865;43.312;27.152;2022-11-20T14:08:10;11.90;;;5.05;;
34657;SDS011;20865;43.312;27.152;2022-11-20T14:10:33;8.13;;;5.22;;
34657;SDS011;20865;43.312;27.152;2022-11-20T14:13:09;10.80;;;4.35;;
34657;SDS011;20865;43.312;27.152;2022-11-20T14:15:45;11.75;;;5.33;;
34657;SDS011;20865;43.312;27.152;2022-11-20T14:18:19;10.75;;;4.65;;
34657;SDS011;20865;43.312;27.152;2022-11-20T14:20:43;15.25;;;5.10;;
34657;SDS011;20865;43.312;27.152;2022-11-20T14:23:12;17.90;;;6.58;;
34657;SDS011;20865;43.312;27.152;2022-11-20T14:25:44;12.53;;;6.08;;
34657;SDS011;20865;43.312;27.152;2022-11-20T14:28:18;11.88;;;5.05;;
34657;SDS011;20865;43.312;27.152;2022-11-20T14:30:46;15.18;;;5.30;;
34657;SDS011;20865;43.312;27.152;2022-11-20T14:33:15;10.15;;;4.08;;
34657;SDS011;20865;43.312;27.152;2022-11-20T14:35:46;11.00;;;4.30;;
34657;SDS011;20865;43.312;27.152;2022-11-20T14:38:21;13.50;;;6.58;;
34657;SDS011;20865;43.312;27.152;2022-11-20T14:40:50;20.95;;;8.75;;
34657;SDS011;20865;43.312;27.152;2022-11-20T14:43:19;10.93;;;5.12;;
34657;SDS011;20865;43.312;27.152;2022-11-20T14:45:52;11.35;;;4.40;;
34657;SDS011;20865;43.312;27.152;2022-11-20T14:48:32;6.53;;;3.40;;
34657;SDS011;20865;43.312;27.152;2022-11-20T14:51:10;8.53;;;3.72;;
34657;SDS011;20865;43.312;27.152;2022-11-20T14:53:40;8.20;;;3.90;;
34657;SDS011;20865;43.312;27.152;2022-11-20T14:56:07;9.85;;;4.17;;
34657;SDS011;20865;43.312;27.152;2022-11-20T14:58:35;6.62;;;3.27;;
34657;SDS011;20865;43.312;27.152;2022-11-20T15:01:04;8.48;;;3.37;;
34657;SDS011;20865;43.312;27.152;2022-11-20T15:03:34;15.08;;;8.00;;
34657;SDS011;20865;43.312;27.152;2022-11-20T15:06:07;10.63;;;4.90;;
34657;SDS011;20865;43.312;27.152;2022-11-20T15:08:36;6.95;;;3.67;;
34657;SDS011;20865;43.312;27.152;2022-11-20T15:11:16;13.93;;;6.30;;
34657;SDS011;20865;43.312;27.152;2022-11-20T15:13:44;17.10;;;7.83;;
34657;SDS011;20865;43.312;27.152;2022-11-20T15:16:22;14.78;;;8.15;;
34657;SDS011;20865;43.312;27.152;2022-11-20T15:18:46;17.52;;;8.50;;
34657;SDS011;20865;43.312;27.152;2022-11-20T15:21:14;11.20;;;5.22;;
34657;SDS011;20865;43.312;27.152;2022-11-20T15:23:44;7.58;;;4.78;;
34657;SDS011;20865;43.312;27.152;2022-11-20T15:26:12;6.62;;;3.85;;
34657;SDS011;20865;43.312;27.152;2022-11-20T15:28:42;6.45;;;3.85;;
34657;SDS011;20865;43.312;27.152;2022-11-20T15:31:14;4.95;;;2.77;;
34657;SDS011;20865;43.312;27.152;2022-11-20T15:33:44;7.08;;;3.17;;
34657;SDS011;20865;43.312;27.152;2022-11-20T15:36:11;6.37;;;3.35;;
34657;SDS011;20865;43.312;27.152;2022-11-20T15:38:39;6.55;;;2.98;;
34657;SDS011;20865;43.312;27.152;2022-11-20T15:41:08;10.18;;;5.10;;
34657;SDS011;20865;43.312;27.152;2022-11-20T15:43:36;8.60;;;5.33;;
34657;SDS011;20865;43.312;27.152;2022-11-20T15:46:12;7.33;;;3.27;;
34657;SDS011;20865;43.312;27.152;2022-11-20T15:48:47;5.58;;;3.00;;
34657;SDS011;20865;43.312;27.152;2022-11-20T15:53:47;5.97;;;3.10;;
34657;SDS011;20865;43.312;27.152;2022-11-20T15:56:15;7.78;;;3.87;;
34657;SDS011;20865;43.312;27.152;2022-11-20T15:58:42;6.53;;;2.55;;
34657;SDS011;20865;43.312;27.152;2022-11-20T16:01:16;6.40;;;2.30;;
34657;SDS011;20865;43.312;27.152;2022-11-20T16:03:41;4.12;;;2.40;;